createdAt,value
2018-07-06T00:01:00.409Z,17.47
2018-07-06T00:03:42.258Z,16.70
2018-07-06T00:06:24.268Z,18.47
2018-07-06T00:09:05.959Z,17.93
2018-07-06T00:11:47.746Z,16.90
2018-07-06T00:14:29.854Z,17.63
2018-07-06T00:17:11.382Z,17.53
2018-07-06T00:19:53.485Z,17.27
2018-07-06T00:22:35.221Z,16.50
2018-07-06T00:25:17.118Z,17.60
2018-07-06T00:27:58.511Z,18.77
2018-07-06T00:30:40.473Z,18.47
2018-07-06T00:33:22.400Z,18.10
2018-07-06T00:36:04.576Z,18.03
2018-07-06T00:38:45.987Z,19.23
2018-07-06T00:41:28.016Z,17.57
2018-07-06T00:44:10.092Z,18.73
2018-07-06T00:46:51.877Z,19.33
2018-07-06T00:49:33.987Z,17.73
2018-07-06T00:52:15.886Z,18.50
2018-07-06T00:54:57.913Z,17.27
2018-07-06T00:57:44.604Z,17.50
2018-07-06T01:00:26.278Z,18.97
2018-07-06T01:03:07.870Z,18.23
2018-07-06T01:05:49.637Z,17.83
2018-07-06T01:08:31.913Z,19.57
2018-07-06T01:11:13.564Z,19.10
2018-07-06T01:13:54.811Z,19.50
2018-07-06T01:16:36.530Z,19.93
2018-07-06T01:19:18.234Z,20.77
2018-07-06T01:21:59.819Z,19.57
2018-07-06T01:24:41.627Z,20.33
2018-07-06T01:27:23.383Z,18.77
2018-07-06T01:30:05.444Z,19.47
2018-07-06T01:32:47.365Z,18.87
2018-07-06T01:35:28.978Z,18.37
2018-07-06T01:38:10.678Z,18.30
2018-07-06T01:40:52.605Z,17.77
2018-07-06T01:43:34.063Z,18.03
2018-07-06T01:46:15.787Z,17.77
2018-07-06T01:48:57.583Z,18.50
2018-07-06T01:51:39.596Z,17.27
2018-07-06T01:54:21.786Z,16.87
2018-07-06T01:57:03.142Z,17.00
2018-07-06T01:59:45.250Z,17.17
2018-07-06T02:02:27.148Z,16.80
2018-07-06T02:05:09.287Z,17.47
2018-07-06T02:07:51.324Z,17.67
2018-07-06T02:10:32.694Z,17.23
2018-07-06T02:13:14.630Z,19.00
2018-07-06T02:15:56.476Z,17.67
2018-07-06T02:18:39.132Z,17.07
2018-07-06T02:21:20.736Z,20.57
2018-07-06T02:24:02.099Z,18.80
2018-07-06T02:26:44.575Z,20.93
2018-07-06T02:29:26.667Z,19.30
2018-07-06T02:32:08.643Z,18.97
2018-07-06T02:34:50.828Z,19.30
2018-07-06T02:37:32.608Z,18.40
2018-07-06T02:40:14.489Z,18.57
2018-07-06T02:42:56.821Z,19.33
2018-07-06T02:45:38.737Z,19.60
2018-07-06T02:48:20.710Z,18.07
2018-07-06T02:51:02.595Z,18.80
2018-07-06T02:53:44.385Z,19.40
2018-07-06T02:56:26.020Z,19.30
2018-07-06T02:59:06.973Z,18.80
2018-07-06T03:01:48.723Z,18.30
2018-07-06T03:04:30.648Z,17.33
2018-07-06T03:07:12.680Z,18.27
2018-07-06T03:09:54.493Z,17.30
2018-07-06T03:12:36.651Z,18.33
2018-07-06T03:15:18.826Z,17.23
2018-07-06T03:18:00.508Z,18.13
2018-07-06T03:20:41.993Z,18.67
2018-07-06T03:23:24.004Z,16.33
2018-07-06T03:26:04.676Z,16.00
2018-07-06T03:28:45.772Z,17.47
2018-07-06T03:31:26.855Z,18.90
2018-07-06T03:34:07.844Z,19.27
2018-07-06T03:36:48.907Z,19.33
2018-07-06T03:39:30.106Z,17.50
2018-07-06T03:42:11.059Z,21.30
2018-07-06T03:44:52.340Z,20.13
2018-07-06T03:47:33.314Z,19.40
2018-07-06T03:50:14.560Z,20.60
2018-07-06T03:52:55.456Z,20.17
2018-07-06T03:55:37.566Z,25.30
2018-07-06T03:58:18.452Z,21.00
2018-07-06T04:00:59.572Z,23.27
2018-07-06T04:03:43.167Z,25.07
2018-07-06T04:06:24.435Z,24.07
2018-07-06T04:09:05.514Z,23.57
2018-07-06T04:11:47.612Z,25.43
2018-07-06T04:14:28.913Z,23.93
2018-07-06T04:17:10.200Z,25.30
2018-07-06T04:19:51.376Z,24.80
2018-07-06T04:22:32.435Z,23.33
2018-07-06T04:25:13.625Z,23.50
2018-07-06T04:27:54.690Z,22.27
2018-07-06T04:30:35.774Z,21.67
2018-07-06T04:33:16.858Z,21.67
2018-07-06T04:35:58.006Z,22.03
2018-07-06T04:38:39.485Z,22.93
2018-07-06T04:41:20.358Z,20.93
2018-07-06T04:44:01.461Z,21.83
2018-07-06T04:46:42.535Z,20.77
2018-07-06T04:49:23.492Z,19.60
2018-07-06T04:52:05.694Z,21.30
2018-07-06T04:54:46.690Z,19.80
2018-07-06T04:57:27.875Z,20.13
2018-07-06T05:00:09.153Z,20.23
2018-07-06T05:02:50.339Z,19.50
2018-07-06T05:05:31.430Z,20.30
2018-07-06T05:08:12.254Z,20.73
2018-07-06T05:10:53.253Z,20.77
2018-07-06T05:13:34.153Z,21.80
2018-07-06T05:16:15.493Z,23.33
2018-07-06T05:18:56.594Z,21.20
2018-07-06T05:21:37.497Z,20.47
2018-07-06T05:24:18.755Z,17.77
2018-07-06T05:26:59.721Z,16.80
2018-07-06T05:29:41.213Z,17.20
2018-07-06T05:32:22.402Z,18.87
2018-07-06T05:35:03.377Z,16.40
2018-07-06T05:37:44.349Z,17.30
2018-07-06T05:40:25.289Z,16.97
2018-07-06T05:43:06.267Z,16.63
2018-07-06T05:45:47.376Z,16.30
2018-07-06T05:48:28.304Z,16.60
2018-07-06T05:51:09.394Z,15.90
2018-07-06T05:53:50.635Z,14.53
2018-07-06T05:56:31.574Z,14.40
2018-07-06T05:59:12.814Z,14.37
2018-07-06T06:01:53.832Z,15.70
2018-07-06T06:04:34.914Z,14.50
2018-07-06T06:07:15.783Z,15.20
2018-07-06T06:09:45.945Z,13.47
2018-07-06T06:12:16.407Z,13.73
2018-07-06T06:14:46.927Z,13.20
2018-07-06T06:17:17.968Z,12.67
2018-07-06T06:19:48.249Z,12.70
2018-07-06T06:22:18.560Z,13.53
2018-07-06T06:24:48.927Z,13.87
2018-07-06T06:27:19.246Z,13.93
2018-07-06T06:29:50.353Z,15.57
2018-07-06T06:32:20.855Z,14.37
2018-07-06T06:34:52.322Z,14.40
2018-07-06T06:37:22.659Z,14.60
2018-07-06T06:39:53.576Z,14.27
2018-07-06T06:42:23.885Z,13.80
2018-07-06T06:44:54.418Z,14.07
2018-07-06T06:47:25.149Z,13.77
2018-07-06T06:49:55.425Z,14.53
2018-07-06T06:52:26.127Z,14.70
2018-07-06T06:54:57.277Z,14.10
2018-07-06T06:57:27.460Z,14.73
2018-07-06T06:59:57.972Z,14.83
2018-07-06T07:02:28.410Z,14.67
2018-07-06T07:04:58.796Z,14.43
2018-07-06T07:07:29.036Z,15.27
2018-07-06T07:09:59.407Z,14.47
2018-07-06T07:12:29.791Z,14.23
2018-07-06T07:15:00.130Z,14.50
2018-07-06T07:17:30.604Z,14.00
2018-07-06T07:20:00.945Z,14.47
2018-07-06T07:22:31.610Z,13.40
2018-07-06T07:25:02.038Z,13.17
2018-07-06T07:27:32.266Z,13.53
2018-07-06T07:30:02.659Z,13.80
2018-07-06T07:32:33.107Z,14.57
2018-07-06T07:35:03.671Z,13.73
2018-07-06T07:37:34.079Z,14.27
2018-07-06T07:40:04.743Z,14.30
2018-07-06T07:42:36.069Z,14.43
2018-07-06T07:45:06.701Z,13.83
2018-07-06T07:47:37.653Z,14.27
2018-07-06T07:50:08.165Z,13.33
2018-07-06T07:52:49.216Z,12.10
2018-07-06T07:55:19.526Z,13.33
2018-07-06T07:57:49.771Z,12.90
2018-07-06T08:00:20.389Z,15.13
2018-07-06T08:02:50.828Z,13.90
2018-07-06T08:05:21.247Z,13.70
2018-07-06T08:07:51.483Z,13.40
2018-07-06T08:10:21.857Z,12.73
2018-07-06T08:12:52.170Z,13.40
2018-07-06T08:15:22.818Z,12.57
2018-07-06T08:17:53.183Z,11.90
2018-07-06T08:20:23.655Z,12.27
2018-07-06T08:22:53.829Z,12.23
2018-07-06T08:25:24.103Z,13.53
2018-07-06T08:27:54.233Z,11.93
2018-07-06T08:30:24.729Z,12.27
2018-07-06T08:32:55.007Z,14.57
2018-07-06T08:35:36.064Z,12.37
2018-07-06T08:38:07.394Z,12.70
2018-07-06T08:40:38.362Z,12.20
2018-07-06T08:43:08.877Z,12.20
2018-07-06T08:45:40.282Z,12.10
2018-07-06T08:48:10.557Z,13.13
2018-07-06T08:50:41.133Z,13.27
2018-07-06T08:53:11.720Z,11.80
2018-07-06T08:55:42.237Z,12.17
2018-07-06T08:58:12.439Z,11.37
2018-07-06T09:00:43.281Z,12.37
2018-07-06T09:03:13.785Z,12.13
2018-07-06T09:05:44.751Z,11.63
2018-07-06T09:08:14.984Z,13.57
2018-07-06T09:10:46.656Z,11.53
2018-07-06T09:13:18.063Z,11.10
2018-07-06T09:15:48.338Z,10.63
2018-07-06T09:18:18.758Z,11.80
2018-07-06T09:20:49.127Z,11.67
2018-07-06T09:23:19.397Z,10.80
2018-07-06T09:25:50.015Z,11.10
2018-07-06T09:28:20.083Z,11.90
2018-07-06T09:30:50.488Z,11.17
2018-07-06T09:33:21.140Z,10.80
2018-07-06T09:35:51.966Z,10.73
2018-07-06T09:38:23.482Z,10.37
2018-07-06T09:40:53.931Z,11.53
2018-07-06T09:43:24.277Z,11.60
2018-07-06T09:45:54.668Z,12.23
2018-07-06T09:48:24.849Z,11.95
2018-07-06T09:50:55.356Z,11.70
2018-07-06T09:53:26.628Z,12.10
2018-07-06T09:55:57.354Z,12.07
2018-07-06T09:58:27.692Z,10.50
2018-07-06T10:00:59.040Z,10.90
2018-07-06T10:03:30.024Z,11.43
2018-07-06T10:06:01.046Z,10.90
2018-07-06T10:08:31.319Z,10.47
2018-07-06T10:11:01.899Z,11.07
2018-07-06T10:13:32.373Z,10.53
2018-07-06T10:16:02.839Z,9.97
2018-07-06T10:18:33.276Z,10.57
2018-07-06T10:21:03.849Z,9.53
2018-07-06T10:23:34.055Z,9.58
2018-07-06T10:26:04.432Z,10.00
2018-07-06T10:30:51.888Z,9.48
2018-07-06T10:33:22.299Z,9.38
2018-07-06T10:35:52.650Z,8.30
2018-07-06T10:38:22.963Z,8.98
2018-07-06T10:40:53.305Z,9.08
2018-07-06T10:43:23.606Z,8.45
2018-07-06T10:45:54.049Z,8.83
2018-07-06T10:48:24.962Z,9.88
2018-07-06T10:50:55.371Z,10.48
2018-07-06T10:53:25.921Z,10.23
2018-07-06T10:55:56.386Z,9.18
2018-07-06T10:58:26.694Z,9.00
2018-07-06T11:00:56.928Z,9.08
2018-07-06T11:03:27.436Z,9.20
2018-07-06T11:05:58.011Z,8.75
2018-07-06T11:08:28.338Z,8.33
2018-07-06T11:10:58.768Z,8.40
2018-07-06T11:13:29.130Z,8.38
2018-07-06T11:15:59.542Z,7.92
2018-07-06T11:18:29.911Z,8.25
2018-07-06T11:21:00.373Z,8.28
2018-07-06T11:23:30.824Z,10.05
2018-07-06T11:26:00.969Z,8.30
2018-07-06T11:28:31.249Z,8.33
2018-07-06T11:31:01.435Z,8.10
2018-07-06T11:33:31.749Z,7.97
2018-07-06T11:36:02.016Z,8.53
2018-07-06T11:38:32.408Z,7.70
2018-07-06T11:41:02.861Z,7.72
2018-07-06T11:43:33.333Z,7.65
2018-07-06T11:46:04.067Z,7.12
2018-07-06T11:48:34.198Z,7.47
2018-07-06T11:51:04.696Z,7.25
2018-07-06T11:53:35.049Z,7.67
2018-07-06T11:56:05.386Z,7.33
2018-07-06T11:58:35.513Z,6.87
2018-07-06T12:01:05.908Z,6.87
2018-07-06T12:03:36.472Z,6.83
2018-07-06T12:06:06.673Z,6.90
2018-07-06T12:08:37.006Z,7.25
2018-07-06T12:11:07.185Z,7.12
2018-07-06T12:13:37.583Z,7.40
2018-07-06T12:16:07.927Z,6.90
2018-07-06T12:18:38.321Z,6.90
2018-07-06T12:21:08.826Z,6.75
2018-07-06T12:23:39.169Z,6.72
2018-07-06T12:26:09.421Z,6.30
2018-07-06T12:28:39.519Z,6.65
2018-07-06T12:31:10.358Z,5.47
2018-07-06T12:33:40.763Z,5.65
2018-07-06T12:36:11.187Z,5.47
2018-07-06T12:38:42.314Z,5.47
2018-07-06T12:41:12.586Z,4.83
2018-07-06T12:43:42.990Z,5.53
2018-07-06T12:46:13.084Z,5.85
2018-07-06T12:48:43.460Z,6.75
2018-07-06T12:51:14.085Z,5.72
2018-07-06T12:53:44.446Z,5.37
2018-07-06T12:56:14.959Z,6.12
2018-07-06T12:58:45.241Z,5.20
2018-07-06T13:01:15.442Z,5.30
2018-07-06T13:03:46.160Z,5.70
2018-07-06T13:06:16.484Z,5.67
2018-07-06T13:08:46.790Z,5.78
2018-07-06T13:11:17.175Z,5.15
2018-07-06T13:13:47.369Z,5.47
2018-07-06T13:16:17.593Z,5.60
2018-07-06T13:18:48.890Z,5.47
2018-07-06T13:21:19.129Z,5.85
2018-07-06T13:23:50.797Z,5.30
2018-07-06T13:26:20.813Z,5.60
2018-07-06T13:28:51.057Z,5.83
2018-07-06T13:31:21.049Z,5.67
2018-07-06T13:33:51.287Z,6.65
2018-07-06T13:36:21.729Z,6.15
2018-07-06T13:38:51.954Z,5.72
2018-07-06T13:41:22.454Z,5.60
2018-07-06T13:43:54.335Z,6.60
2018-07-06T13:46:24.481Z,6.28
2018-07-06T13:48:54.738Z,6.50
2018-07-06T13:51:24.994Z,6.78
2018-07-06T13:53:55.501Z,6.72
2018-07-06T13:56:25.841Z,6.83
2018-07-06T13:58:55.882Z,6.90
2018-07-06T14:01:26.190Z,6.75
2018-07-06T14:03:56.713Z,7.08
2018-07-06T14:06:26.966Z,6.97
2018-07-06T14:08:57.065Z,7.12
2018-07-06T14:11:27.239Z,7.22
2018-07-06T14:13:58.027Z,7.33
2018-07-06T14:16:28.411Z,7.30
2018-07-06T14:18:58.755Z,7.42
2018-07-06T14:21:29.151Z,7.90
2018-07-06T14:24:00.011Z,7.75
2018-07-06T14:26:30.303Z,7.22
2018-07-06T14:29:00.673Z,7.40
2018-07-06T14:31:31.071Z,8.15
2018-07-06T14:34:02.088Z,7.85
2018-07-06T14:36:32.141Z,7.97
2018-07-06T14:39:02.429Z,7.72
2018-07-06T14:41:32.710Z,9.30
2018-07-06T14:44:03.109Z,7.75
2018-07-06T14:46:33.532Z,8.15
2018-07-06T14:49:04.008Z,8.23
2018-07-06T14:51:34.154Z,8.00
2018-07-06T14:54:04.284Z,7.95
2018-07-06T14:56:34.580Z,12.20
2018-07-06T14:59:04.757Z,9.25
2018-07-06T15:01:34.930Z,6.70
2018-07-06T15:04:05.202Z,7.80
2018-07-06T15:06:35.399Z,6.42
2018-07-06T15:09:06.281Z,6.83
2018-07-06T15:11:36.312Z,6.90
2018-07-06T15:14:06.652Z,6.87
2018-07-06T15:16:36.896Z,7.92
2018-07-06T15:19:07.243Z,10.85
2018-07-06T15:21:37.556Z,8.65
2018-07-06T15:24:07.797Z,8.00
2018-07-06T15:26:38.242Z,8.75
2018-07-06T15:29:08.495Z,9.58
2018-07-06T15:31:38.875Z,8.28
2018-07-06T15:34:09.595Z,7.97
2018-07-06T15:36:39.952Z,9.40
2018-07-06T15:39:10.157Z,9.15
2018-07-06T15:41:40.634Z,10.18
2018-07-06T15:44:11.029Z,10.30
2018-07-06T15:46:41.387Z,9.65
2018-07-06T15:49:11.340Z,10.20
2018-07-06T15:51:41.644Z,10.20
2018-07-06T15:54:11.778Z,9.13
2018-07-06T15:56:42.125Z,10.43
2018-07-06T15:59:12.272Z,10.20
2018-07-06T16:01:42.509Z,11.10
2018-07-06T16:04:12.842Z,10.55
2018-07-06T16:06:43.091Z,10.65
2018-07-06T16:09:13.539Z,10.18
2018-07-06T16:11:43.751Z,11.12
2018-07-06T16:14:14.212Z,13.03
2018-07-06T16:16:44.526Z,15.18
2018-07-06T16:19:14.825Z,14.50
2018-07-06T16:21:44.875Z,12.33
2018-07-06T16:24:15.154Z,11.73
2018-07-06T16:26:45.298Z,11.78
2018-07-06T16:29:15.560Z,16.27
2018-07-06T16:31:45.740Z,16.50
2018-07-06T16:34:16.055Z,13.15
2018-07-06T16:36:46.312Z,12.37
2018-07-06T16:39:16.514Z,15.48
2018-07-06T16:41:46.944Z,12.68
2018-07-06T16:44:17.540Z,14.00
2018-07-06T16:46:47.635Z,13.05
2018-07-06T16:49:17.867Z,13.40
2018-07-06T16:51:48.221Z,13.28
2018-07-06T16:54:18.389Z,14.30
2018-07-06T16:56:48.727Z,13.45
2018-07-06T16:59:19.068Z,13.45
2018-07-06T17:01:49.235Z,13.30
2018-07-06T17:04:20.096Z,14.45
2018-07-06T17:06:50.332Z,13.93
2018-07-06T17:09:20.493Z,14.00
2018-07-06T17:11:50.736Z,13.90
2018-07-06T17:14:21.106Z,14.50
2018-07-06T17:16:51.336Z,15.07
2018-07-06T17:19:21.514Z,14.60
2018-07-06T17:21:51.936Z,15.07
2018-07-06T17:24:22.056Z,14.60
2018-07-06T17:26:52.280Z,14.73
2018-07-06T17:29:22.434Z,16.53
2018-07-06T17:31:52.620Z,16.93
2018-07-06T17:34:23.017Z,16.90
2018-07-06T17:36:53.237Z,15.33
2018-07-06T17:39:23.650Z,15.00
2018-07-06T17:41:53.843Z,14.57
2018-07-06T17:44:24.088Z,14.07
2018-07-06T17:46:54.391Z,12.93
2018-07-06T17:49:24.597Z,12.23
2018-07-06T17:51:55.033Z,11.97
2018-07-06T17:54:25.317Z,11.37
2018-07-06T17:56:55.588Z,10.27
2018-07-06T17:59:25.631Z,10.60
2018-07-06T18:01:56.123Z,11.00
2018-07-06T18:04:26.345Z,11.47
2018-07-06T18:06:56.461Z,11.90
2018-07-06T18:09:26.583Z,11.03
2018-07-06T18:11:57.773Z,10.70
2018-07-06T18:14:28.183Z,11.37
2018-07-06T18:16:58.403Z,10.90
2018-07-06T18:19:28.529Z,11.57
2018-07-06T18:21:59.041Z,11.83
2018-07-06T18:24:29.333Z,11.73
2018-07-06T18:26:59.529Z,13.50
2018-07-06T18:29:29.857Z,11.30
2018-07-06T18:32:00.032Z,12.33
2018-07-06T18:34:30.262Z,11.83
2018-07-06T18:37:00.583Z,11.50
2018-07-06T18:39:30.871Z,11.33
2018-07-06T18:42:00.950Z,11.50
2018-07-06T18:44:31.129Z,11.73
2018-07-06T18:47:01.428Z,11.63
2018-07-06T18:49:31.656Z,11.03
2018-07-06T18:52:02.069Z,11.07
2018-07-06T18:54:32.226Z,11.87
2018-07-06T18:57:02.590Z,12.03
2018-07-06T18:59:32.767Z,11.07
2018-07-06T19:02:02.870Z,11.23
2018-07-06T19:04:33.286Z,12.13
2018-07-06T19:07:03.536Z,12.03
2018-07-06T19:09:33.641Z,11.17
2018-07-06T19:12:03.812Z,11.93
2018-07-06T19:14:34.167Z,12.03
2018-07-06T19:17:04.279Z,11.10
2018-07-06T19:19:34.540Z,10.93
2018-07-06T19:22:04.825Z,11.07
2018-07-06T19:24:35.169Z,11.03
2018-07-06T19:27:05.425Z,12.07
2018-07-06T19:29:35.513Z,10.90
2018-07-06T19:32:05.808Z,11.53
2018-07-06T19:34:35.992Z,11.70
2018-07-06T19:37:06.120Z,12.17
2018-07-06T19:39:36.722Z,12.23
2018-07-06T19:42:07.048Z,12.27
2018-07-06T19:44:37.400Z,12.43
2018-07-06T19:47:07.423Z,12.43
2018-07-06T19:49:37.676Z,12.17
2018-07-06T19:52:08.016Z,12.10
2018-07-06T19:54:39.132Z,12.53
2018-07-06T19:57:09.513Z,12.27
2018-07-06T19:59:39.679Z,11.97
2018-07-06T20:02:10.358Z,11.33
2018-07-06T20:04:40.969Z,12.97
2018-07-06T20:07:11.948Z,13.27
2018-07-06T20:09:43.328Z,14.10
2018-07-06T20:12:14.456Z,13.80
2018-07-06T20:14:45.421Z,12.73
2018-07-06T20:17:16.874Z,12.83
2018-07-06T20:19:48.405Z,15.50
2018-07-06T20:22:18.776Z,13.73
2018-07-06T20:24:50.418Z,13.63
2018-07-06T20:27:21.780Z,11.83
2018-07-06T20:29:52.957Z,14.70
2018-07-06T20:32:23.668Z,13.63
2018-07-06T20:34:54.966Z,14.13
2018-07-06T20:37:25.891Z,14.43
2018-07-06T20:39:57.330Z,13.17
2018-07-06T20:42:28.370Z,14.47
2018-07-06T20:44:59.350Z,14.93
2018-07-06T20:47:31.009Z,15.83
2018-07-06T20:50:02.321Z,15.07
2018-07-06T20:52:34.008Z,14.57
2018-07-06T20:55:05.379Z,14.00
2018-07-06T20:57:36.766Z,15.50
2018-07-06T21:00:07.875Z,15.37
2018-07-06T21:02:39.207Z,15.20
2018-07-06T21:05:10.366Z,14.43
2018-07-06T21:07:41.848Z,15.43
2018-07-06T21:10:12.328Z,14.80
2018-07-06T21:12:43.949Z,14.83
2018-07-06T21:15:15.132Z,13.27
2018-07-06T21:17:45.733Z,13.83
2018-07-06T21:20:16.955Z,13.57
2018-07-06T21:22:47.644Z,13.97
2018-07-06T21:25:19.191Z,14.27
2018-07-06T21:27:50.528Z,14.20
2018-07-06T21:30:21.903Z,14.20
2018-07-06T21:32:53.450Z,13.47
2018-07-06T21:35:24.017Z,14.00
2018-07-06T21:37:55.140Z,15.80
2018-07-06T21:40:26.275Z,15.23
2018-07-06T21:42:58.500Z,15.90
2018-07-06T21:45:30.082Z,14.67
2018-07-06T21:48:00.319Z,15.73
2018-07-06T21:50:31.308Z,15.00
2018-07-06T21:53:02.663Z,15.60
2018-07-06T21:55:33.341Z,14.83
2018-07-06T21:58:04.611Z,14.77
2018-07-06T22:00:38.985Z,14.47
2018-07-06T22:03:11.093Z,14.60
2018-07-06T22:05:42.250Z,13.80
2018-07-06T22:08:13.392Z,14.00
2018-07-06T22:10:44.745Z,14.00
2018-07-06T22:13:16.056Z,13.73
2018-07-06T22:15:48.091Z,15.07
2018-07-06T22:18:20.174Z,14.53
2018-07-06T22:20:51.405Z,13.47
2018-07-06T22:23:21.967Z,14.47
2018-07-06T22:25:54.143Z,13.27
2018-07-06T22:28:24.964Z,14.10
2018-07-06T22:30:56.017Z,14.10
2018-07-06T22:33:26.704Z,14.27
2018-07-06T22:35:57.314Z,15.83
2018-07-06T22:38:28.938Z,15.37
2018-07-06T22:40:59.931Z,14.73
2018-07-06T22:43:32.147Z,15.83
2018-07-06T22:46:03.424Z,15.67
2018-07-06T22:48:34.425Z,15.80
2018-07-06T22:51:05.589Z,15.63
2018-07-06T22:53:37.088Z,15.17
2018-07-06T22:56:08.358Z,16.47
2018-07-06T22:58:39.223Z,15.53
2018-07-06T23:01:10.349Z,15.80
2018-07-06T23:03:41.728Z,15.80
2018-07-06T23:06:12.034Z,15.90
2018-07-06T23:08:43.367Z,15.77
2018-07-06T23:11:14.952Z,14.77
2018-07-06T23:13:46.316Z,14.60
2018-07-06T23:16:17.504Z,14.63
2018-07-06T23:18:48.103Z,14.70
2018-07-06T23:21:19.640Z,15.33
2018-07-06T23:23:49.727Z,14.40
2018-07-06T23:26:20.357Z,17.50
2018-07-06T23:28:51.830Z,15.83
2018-07-06T23:31:22.767Z,16.47
2018-07-06T23:33:54.131Z,15.20
2018-07-06T23:36:25.804Z,16.40
2018-07-06T23:38:57.115Z,16.03
2018-07-06T23:41:28.490Z,15.83
2018-07-06T23:43:59.572Z,15.60
2018-07-06T23:46:31.211Z,15.47
2018-07-06T23:49:02.894Z,16.97
2018-07-06T23:51:34.003Z,16.27
2018-07-06T23:54:05.332Z,15.27
2018-07-06T23:56:36.435Z,15.20
2018-07-06T23:59:08.046Z,15.63
